sensor_id;sensor_type;location;lat;lon;timestamp;P1;durP1;ratioP1;P2;durP2;ratioP2
39782;SDS011;25462;51.164;17.100;2023-07-31T00:03:53;6.00;;;2.80;;
39782;SDS011;25462;51.164;17.100;2023-07-31T00:08:58;4.80;;;2.80;;
39782;SDS011;25462;51.164;17.100;2023-07-31T00:14:02;5.50;;;2.30;;
39782;SDS011;25462;51.164;17.100;2023-07-31T00:19:06;6.70;;;2.30;;
39782;SDS011;25462;51.164;17.100;2023-07-31T00:24:12;7.10;;;2.50;;
39782;SDS011;25462;51.164;17.100;2023-07-31T00:29:16;4.20;;;2.50;;
39782;SDS011;25462;51.164;17.100;2023-07-31T00:34:22;5.70;;;2.40;;
39782;SDS011;25462;51.164;17.100;2023-07-31T00:39:25;4.20;;;2.70;;
39782;SDS011;25462;51.164;17.100;2023-07-31T00:44:30;6.00;;;2.60;;
39782;SDS011;25462;51.164;17.100;2023-07-31T00:49:36;3.40;;;2.60;;
39782;SDS011;25462;51.164;17.100;2023-07-31T00:54:41;4.90;;;2.60;;
39782;SDS011;25462;51.164;17.100;2023-07-31T00:59:45;3.90;;;2.30;;
39782;SDS011;25462;51.164;17.100;2023-07-31T01:04:51;7.50;;;2.40;;
39782;SDS011;25462;51.164;17.100;2023-07-31T01:15:34;7.40;;;2.60;;
39782;SDS011;25462;51.164;17.100;2023-07-31T01:20:41;7.60;;;2.70;;
39782;SDS011;25462;51.164;17.100;2023-07-31T01:26:00;9.20;;;2.70;;
39782;SDS011;25462;51.164;17.100;2023-07-31T01:31:25;5.80;;;2.60;;
39782;SDS011;25462;51.164;17.100;2023-07-31T01:36:31;7.70;;;2.80;;
39782;SDS011;25462;51.164;17.100;2023-07-31T01:41:36;4.40;;;2.50;;
39782;SDS011;25462;51.164;17.100;2023-07-31T01:46:41;5.40;;;2.40;;
39782;SDS011;25462;51.164;17.100;2023-07-31T01:51:46;6.70;;;2.80;;
39782;SDS011;25462;51.164;17.100;2023-07-31T01:56:49;4.50;;;2.60;;
39782;SDS011;25462;51.164;17.100;2023-07-31T02:01:53;6.60;;;2.60;;
39782;SDS011;25462;51.164;17.100;2023-07-31T02:06:57;10.80;;;2.80;;
39782;SDS011;25462;51.164;17.100;2023-07-31T02:12:02;8.90;;;2.90;;
39782;SDS011;25462;51.164;17.100;2023-07-31T02:17:07;8.30;;;3.00;;
39782;SDS011;25462;51.164;17.100;2023-07-31T02:22:12;9.00;;;2.60;;
39782;SDS011;25462;51.164;17.100;2023-07-31T02:27:17;3.80;;;2.40;;
39782;SDS011;25462;51.164;17.100;2023-07-31T02:32:21;4.60;;;2.50;;
39782;SDS011;25462;51.164;17.100;2023-07-31T02:37:26;4.50;;;2.60;;
39782;SDS011;25462;51.164;17.100;2023-07-31T02:42:31;10.60;;;2.60;;
39782;SDS011;25462;51.164;17.100;2023-07-31T02:47:35;4.40;;;2.60;;
39782;SDS011;25462;51.164;17.100;2023-07-31T02:52:40;6.70;;;2.60;;
39782;SDS011;25462;51.164;17.100;2023-07-31T02:57:43;8.70;;;2.80;;
39782;SDS011;25462;51.164;17.100;2023-07-31T03:02:48;10.10;;;2.30;;
39782;SDS011;25462;51.164;17.100;2023-07-31T03:07:53;5.00;;;2.10;;
39782;SDS011;25462;51.164;17.100;2023-07-31T03:12:59;7.60;;;2.90;;
39782;SDS011;25462;51.164;17.100;2023-07-31T03:18:03;7.00;;;2.40;;
39782;SDS011;25462;51.164;17.100;2023-07-31T03:23:07;6.50;;;2.60;;
39782;SDS011;25462;51.164;17.100;2023-07-31T03:28:11;9.10;;;3.00;;
39782;SDS011;25462;51.164;17.100;2023-07-31T03:33:15;8.80;;;2.60;;
39782;SDS011;25462;51.164;17.100;2023-07-31T03:38:19;7.30;;;2.80;;
39782;SDS011;25462;51.164;17.100;2023-07-31T03:43:23;7.20;;;2.60;;
39782;SDS011;25462;51.164;17.100;2023-07-31T03:48:28;7.50;;;2.60;;
39782;SDS011;25462;51.164;17.100;2023-07-31T03:53:33;5.60;;;2.40;;
39782;SDS011;25462;51.164;17.100;2023-07-31T03:58:37;6.40;;;2.30;;
39782;SDS011;25462;51.164;17.100;2023-07-31T04:03:41;9.50;;;2.80;;
39782;SDS011;25462;51.164;17.100;2023-07-31T04:08:46;8.50;;;2.50;;
39782;SDS011;25462;51.164;17.100;2023-07-31T04:13:51;4.90;;;2.50;;
39782;SDS011;25462;51.164;17.100;2023-07-31T04:18:56;6.70;;;2.20;;
39782;SDS011;25462;51.164;17.100;2023-07-31T04:23:59;10.70;;;3.00;;
39782;SDS011;25462;51.164;17.100;2023-07-31T04:29:03;6.60;;;3.30;;
39782;SDS011;25462;51.164;17.100;2023-07-31T04:34:09;9.20;;;3.10;;
39782;SDS011;25462;51.164;17.100;2023-07-31T04:39:13;8.10;;;3.60;;
39782;SDS011;25462;51.164;17.100;2023-07-31T04:44:17;6.00;;;2.90;;
39782;SDS011;25462;51.164;17.100;2023-07-31T04:49:21;6.90;;;3.30;;
39782;SDS011;25462;51.164;17.100;2023-07-31T04:54:26;9.00;;;3.60;;
39782;SDS011;25462;51.164;17.100;2023-07-31T04:59:30;9.10;;;3.70;;
39782;SDS011;25462;51.164;17.100;2023-07-31T05:04:35;8.80;;;2.90;;
39782;SDS011;25462;51.164;17.100;2023-07-31T05:09:40;5.00;;;2.50;;
39782;SDS011;25462;51.164;17.100;2023-07-31T05:14:44;9.30;;;2.40;;
39782;SDS011;25462;51.164;17.100;2023-07-31T05:19:49;10.40;;;2.70;;
39782;SDS011;25462;51.164;17.100;2023-07-31T05:24:54;11.00;;;3.20;;
39782;SDS011;25462;51.164;17.100;2023-07-31T05:29:59;5.80;;;2.60;;
39782;SDS011;25462;51.164;17.100;2023-07-31T05:35:04;9.30;;;3.50;;
39782;SDS011;25462;51.164;17.100;2023-07-31T05:40:08;8.10;;;2.90;;
39782;SDS011;25462;51.164;17.100;2023-07-31T05:45:15;6.40;;;2.90;;
39782;SDS011;25462;51.164;17.100;2023-07-31T05:50:21;7.80;;;3.10;;
39782;SDS011;25462;51.164;17.100;2023-07-31T05:55:25;9.90;;;3.60;;
39782;SDS011;25462;51.164;17.100;2023-07-31T06:00:30;7.10;;;3.50;;
39782;SDS011;25462;51.164;17.100;2023-07-31T06:05:34;7.00;;;2.20;;
39782;SDS011;25462;51.164;17.100;2023-07-31T06:10:38;10.40;;;3.50;;
39782;SDS011;25462;51.164;17.100;2023-07-31T06:15:42;11.70;;;3.70;;
39782;SDS011;25462;51.164;17.100;2023-07-31T06:20:47;10.20;;;3.60;;
39782;SDS011;25462;51.164;17.100;2023-07-31T06:25:57;6.20;;;2.30;;
39782;SDS011;25462;51.164;17.100;2023-07-31T06:31:02;5.50;;;2.10;;
39782;SDS011;25462;51.164;17.100;2023-07-31T06:36:06;8.50;;;3.90;;
39782;SDS011;25462;51.164;17.100;2023-07-31T06:41:10;10.70;;;2.40;;
39782;SDS011;25462;51.164;17.100;2023-07-31T06:46:15;7.90;;;2.40;;
39782;SDS011;25462;51.164;17.100;2023-07-31T06:51:20;10.70;;;2.50;;
39782;SDS011;25462;51.164;17.100;2023-07-31T06:56:24;9.50;;;2.90;;
39782;SDS011;25462;51.164;17.100;2023-07-31T07:01:30;12.90;;;4.30;;
39782;SDS011;25462;51.164;17.100;2023-07-31T07:06:34;20.20;;;7.00;;
39782;SDS011;25462;51.164;17.100;2023-07-31T07:11:39;8.80;;;3.70;;
39782;SDS011;25462;51.164;17.100;2023-07-31T07:16:42;8.80;;;2.30;;
39782;SDS011;25462;51.164;17.100;2023-07-31T07:21:47;11.70;;;2.50;;
39782;SDS011;25462;51.164;17.100;2023-07-31T07:26:51;6.70;;;1.80;;
39782;SDS011;25462;51.164;17.100;2023-07-31T07:31:55;6.20;;;1.90;;
39782;SDS011;25462;51.164;17.100;2023-07-31T07:36:59;5.50;;;2.00;;
39782;SDS011;25462;51.164;17.100;2023-07-31T07:42:03;4.10;;;1.70;;
39782;SDS011;25462;51.164;17.100;2023-07-31T07:47:08;7.40;;;1.70;;
39782;SDS011;25462;51.164;17.100;2023-07-31T07:52:13;5.20;;;1.80;;
39782;SDS011;25462;51.164;17.100;2023-07-31T07:57:17;6.90;;;2.00;;
39782;SDS011;25462;51.164;17.100;2023-07-31T08:02:21;6.90;;;2.30;;
39782;SDS011;25462;51.164;17.100;2023-07-31T08:07:26;9.50;;;2.60;;
39782;SDS011;25462;51.164;17.100;2023-07-31T08:12:30;5.30;;;2.00;;
39782;SDS011;25462;51.164;17.100;2023-07-31T08:17:33;5.90;;;1.80;;
39782;SDS011;25462;51.164;17.100;2023-07-31T08:22:38;5.00;;;1.80;;
39782;SDS011;25462;51.164;17.100;2023-07-31T08:27:44;6.00;;;1.60;;
39782;SDS011;25462;51.164;17.100;2023-07-31T08:32:48;5.00;;;1.60;;
39782;SDS011;25462;51.164;17.100;2023-07-31T08:37:53;4.50;;;1.70;;
39782;SDS011;25462;51.164;17.100;2023-07-31T08:42:57;5.90;;;1.80;;
39782;SDS011;25462;51.164;17.100;2023-07-31T08:48:06;3.40;;;1.60;;
39782;SDS011;25462;51.164;17.100;2023-07-31T08:53:09;4.70;;;1.90;;
39782;SDS011;25462;51.164;17.100;2023-07-31T08:58:14;3.20;;;1.50;;
39782;SDS011;25462;51.164;17.100;2023-07-31T09:03:18;7.20;;;2.40;;
39782;SDS011;25462;51.164;17.100;2023-07-31T09:08:22;4.20;;;1.70;;
39782;SDS011;25462;51.164;17.100;2023-07-31T09:13:27;6.90;;;1.90;;
39782;SDS011;25462;51.164;17.100;2023-07-31T09:18:32;4.40;;;1.70;;
39782;SDS011;25462;51.164;17.100;2023-07-31T09:24:09;4.30;;;1.40;;
39782;SDS011;25462;51.164;17.100;2023-07-31T09:29:18;5.50;;;1.60;;
39782;SDS011;25462;51.164;17.100;2023-07-31T09:34:28;5.70;;;2.00;;
39782;SDS011;25462;51.164;17.100;2023-07-31T09:39:47;7.40;;;2.00;;
39782;SDS011;25462;51.164;17.100;2023-07-31T09:44:51;5.20;;;2.50;;
39782;SDS011;25462;51.164;17.100;2023-07-31T09:49:55;7.10;;;2.60;;
39782;SDS011;25462;51.164;17.100;2023-07-31T09:54:59;7.30;;;2.80;;
39782;SDS011;25462;51.164;17.100;2023-07-31T10:00:04;7.10;;;2.30;;
39782;SDS011;25462;51.164;17.100;2023-07-31T10:10:21;9.40;;;2.50;;
39782;SDS011;25462;51.164;17.100;2023-07-31T10:15:26;4.90;;;1.90;;
39782;SDS011;25462;51.164;17.100;2023-07-31T10:20:33;5.00;;;1.70;;
39782;SDS011;25462;51.164;17.100;2023-07-31T10:25:38;4.60;;;2.00;;
39782;SDS011;25462;51.164;17.100;2023-07-31T10:30:42;4.70;;;1.90;;
39782;SDS011;25462;51.164;17.100;2023-07-31T10:35:47;6.20;;;1.70;;
39782;SDS011;25462;51.164;17.100;2023-07-31T10:40:52;5.90;;;1.60;;
39782;SDS011;25462;51.164;17.100;2023-07-31T10:46:13;3.00;;;1.40;;
39782;SDS011;25462;51.164;17.100;2023-07-31T10:51:17;4.90;;;1.70;;
39782;SDS011;25462;51.164;17.100;2023-07-31T10:56:26;5.80;;;2.10;;
39782;SDS011;25462;51.164;17.100;2023-07-31T11:07:00;5.10;;;1.50;;
39782;SDS011;25462;51.164;17.100;2023-07-31T11:12:06;3.80;;;1.70;;
39782;SDS011;25462;51.164;17.100;2023-07-31T11:17:10;5.00;;;1.50;;
39782;SDS011;25462;51.164;17.100;2023-07-31T11:22:14;8.50;;;2.20;;
39782;SDS011;25462;51.164;17.100;2023-07-31T11:27:18;3.70;;;1.60;;
39782;SDS011;25462;51.164;17.100;2023-07-31T11:32:22;3.50;;;1.70;;
39782;SDS011;25462;51.164;17.100;2023-07-31T11:37:39;4.40;;;2.00;;
39782;SDS011;25462;51.164;17.100;2023-07-31T11:42:46;5.70;;;1.90;;
39782;SDS011;25462;51.164;17.100;2023-07-31T11:47:50;7.20;;;1.70;;
39782;SDS011;25462;51.164;17.100;2023-07-31T11:52:59;3.80;;;1.80;;
39782;SDS011;25462;51.164;17.100;2023-07-31T11:58:04;3.00;;;1.70;;
39782;SDS011;25462;51.164;17.100;2023-07-31T12:03:08;5.20;;;2.00;;
39782;SDS011;25462;51.164;17.100;2023-07-31T12:08:14;4.40;;;2.10;;
39782;SDS011;25462;51.164;17.100;2023-07-31T12:13:23;4.90;;;2.00;;
39782;SDS011;25462;51.164;17.100;2023-07-31T12:18:34;3.80;;;2.20;;
39782;SDS011;25462;51.164;17.100;2023-07-31T12:23:43;5.30;;;2.10;;
39782;SDS011;25462;51.164;17.100;2023-07-31T12:28:49;3.60;;;1.80;;
39782;SDS011;25462;51.164;17.100;2023-07-31T12:33:53;3.40;;;1.60;;
39782;SDS011;25462;51.164;17.100;2023-07-31T12:38:58;5.20;;;2.00;;
39782;SDS011;25462;51.164;17.100;2023-07-31T12:44:02;5.40;;;2.30;;
39782;SDS011;25462;51.164;17.100;2023-07-31T12:49:07;3.30;;;1.80;;
39782;SDS011;25462;51.164;17.100;2023-07-31T12:54:12;3.80;;;2.10;;
39782;SDS011;25462;51.164;17.100;2023-07-31T12:59:17;4.10;;;2.30;;
39782;SDS011;25462;51.164;17.100;2023-07-31T13:04:20;5.00;;;2.20;;
39782;SDS011;25462;51.164;17.100;2023-07-31T13:09:25;3.50;;;1.80;;
39782;SDS011;25462;51.164;17.100;2023-07-31T13:14:29;3.30;;;2.00;;
39782;SDS011;25462;51.164;17.100;2023-07-31T13:19:35;6.10;;;2.20;;
39782;SDS011;25462;51.164;17.100;2023-07-31T13:24:39;4.60;;;2.10;;
39782;SDS011;25462;51.164;17.100;2023-07-31T13:29:43;4.70;;;2.50;;
39782;SDS011;25462;51.164;17.100;2023-07-31T13:34:47;3.60;;;2.60;;
39782;SDS011;25462;51.164;17.100;2023-07-31T13:39:52;4.80;;;2.90;;
39782;SDS011;25462;51.164;17.100;2023-07-31T13:44:56;7.60;;;3.80;;
39782;SDS011;25462;51.164;17.100;2023-07-31T13:50:00;6.30;;;2.70;;
39782;SDS011;25462;51.164;17.100;2023-07-31T13:55:05;3.50;;;2.30;;
39782;SDS011;25462;51.164;17.100;2023-07-31T14:00:10;3.80;;;2.50;;
39782;SDS011;25462;51.164;17.100;2023-07-31T14:05:15;4.80;;;2.50;;
39782;SDS011;25462;51.164;17.100;2023-07-31T14:10:19;5.20;;;2.60;;
39782;SDS011;25462;51.164;17.100;2023-07-31T14:15:22;7.50;;;2.50;;
39782;SDS011;25462;51.164;17.100;2023-07-31T14:20:26;4.60;;;2.90;;
39782;SDS011;25462;51.164;17.100;2023-07-31T14:25:30;4.80;;;2.70;;
39782;SDS011;25462;51.164;17.100;2023-07-31T14:30:35;6.00;;;2.40;;
39782;SDS011;25462;51.164;17.100;2023-07-31T14:35:39;3.50;;;2.10;;
39782;SDS011;25462;51.164;17.100;2023-07-31T14:40:43;5.00;;;2.30;;
39782;SDS011;25462;51.164;17.100;2023-07-31T14:45:48;5.70;;;2.70;;
39782;SDS011;25462;51.164;17.100;2023-07-31T14:50:54;3.20;;;2.10;;
39782;SDS011;25462;51.164;17.100;2023-07-31T14:55:59;3.90;;;2.40;;
39782;SDS011;25462;51.164;17.100;2023-07-31T15:01:03;5.90;;;2.50;;
39782;SDS011;25462;51.164;17.100;2023-07-31T15:06:08;3.40;;;2.40;;
39782;SDS011;25462;51.164;17.100;2023-07-31T15:11:11;4.20;;;2.50;;
39782;SDS011;25462;51.164;17.100;2023-07-31T15:16:17;6.10;;;2.60;;
39782;SDS011;25462;51.164;17.100;2023-07-31T15:21:21;5.30;;;2.50;;
39782;SDS011;25462;51.164;17.100;2023-07-31T15:26:25;4.20;;;2.30;;
39782;SDS011;25462;51.164;17.100;2023-07-31T15:31:28;4.10;;;2.30;;
39782;SDS011;25462;51.164;17.100;2023-07-31T15:36:33;3.70;;;2.20;;
39782;SDS011;25462;51.164;17.100;2023-07-31T15:41:39;2.80;;;1.90;;
39782;SDS011;25462;51.164;17.100;2023-07-31T15:46:43;4.40;;;2.20;;
39782;SDS011;25462;51.164;17.100;2023-07-31T15:51:47;3.60;;;2.10;;
39782;SDS011;25462;51.164;17.100;2023-07-31T15:56:52;4.70;;;3.20;;
39782;SDS011;25462;51.164;17.100;2023-07-31T16:01:56;4.10;;;2.00;;
39782;SDS011;25462;51.164;17.100;2023-07-31T16:07:01;3.20;;;2.00;;
39782;SDS011;25462;51.164;17.100;2023-07-31T16:12:05;5.40;;;2.50;;
39782;SDS011;25462;51.164;17.100;2023-07-31T16:17:10;3.90;;;2.20;;
39782;SDS011;25462;51.164;17.100;2023-07-31T16:22:14;3.70;;;2.20;;
39782;SDS011;25462;51.164;17.100;2023-07-31T16:27:18;4.40;;;2.20;;
39782;SDS011;25462;51.164;17.100;2023-07-31T16:32:27;4.00;;;2.40;;
39782;SDS011;25462;51.164;17.100;2023-07-31T16:37:31;7.00;;;2.10;;
39782;SDS011;25462;51.164;17.100;2023-07-31T16:42:35;3.30;;;2.20;;
39782;SDS011;25462;51.164;17.100;2023-07-31T16:47:39;3.90;;;2.30;;
39782;SDS011;25462;51.164;17.100;2023-07-31T16:52:43;4.10;;;2.20;;
39782;SDS011;25462;51.164;17.100;2023-07-31T16:57:47;5.00;;;2.00;;
39782;SDS011;25462;51.164;17.100;2023-07-31T17:02:51;5.00;;;2.20;;
39782;SDS011;25462;51.164;17.100;2023-07-31T17:07:55;3.90;;;2.20;;
39782;SDS011;25462;51.164;17.100;2023-07-31T17:12:59;5.80;;;2.30;;
39782;SDS011;25462;51.164;17.100;2023-07-31T17:18:03;2.90;;;2.00;;
39782;SDS011;25462;51.164;17.100;2023-07-31T17:23:08;4.20;;;2.10;;
39782;SDS011;25462;51.164;17.100;2023-07-31T17:28:12;4.80;;;2.30;;
39782;SDS011;25462;51.164;17.100;2023-07-31T17:33:17;4.30;;;2.60;;
39782;SDS011;25462;51.164;17.100;2023-07-31T17:38:21;3.60;;;2.30;;
39782;SDS011;25462;51.164;17.100;2023-07-31T17:43:26;4.50;;;2.10;;
39782;SDS011;25462;51.164;17.100;2023-07-31T17:48:31;4.00;;;2.10;;
39782;SDS011;25462;51.164;17.100;2023-07-31T17:53:36;8.20;;;2.00;;
39782;SDS011;25462;51.164;17.100;2023-07-31T17:58:40;6.50;;;2.10;;
39782;SDS011;25462;51.164;17.100;2023-07-31T18:03:45;5.80;;;2.20;;
39782;SDS011;25462;51.164;17.100;2023-07-31T18:08:49;5.00;;;2.30;;
39782;SDS011;25462;51.164;17.100;2023-07-31T18:13:54;5.20;;;2.40;;
39782;SDS011;25462;51.164;17.100;2023-07-31T18:18:59;6.20;;;2.20;;
39782;SDS011;25462;51.164;17.100;2023-07-31T18:24:03;4.70;;;2.20;;
39782;SDS011;25462;51.164;17.100;2023-07-31T18:29:08;7.70;;;2.00;;
39782;SDS011;25462;51.164;17.100;2023-07-31T18:34:12;12.40;;;2.30;;
39782;SDS011;25462;51.164;17.100;2023-07-31T18:39:17;5.30;;;2.20;;
39782;SDS011;25462;51.164;17.100;2023-07-31T18:44:21;5.20;;;2.30;;
39782;SDS011;25462;51.164;17.100;2023-07-31T18:49:26;6.40;;;2.30;;
39782;SDS011;25462;51.164;17.100;2023-07-31T18:54:30;3.60;;;2.60;;
39782;SDS011;25462;51.164;17.100;2023-07-31T18:59:36;9.10;;;2.30;;
39782;SDS011;25462;51.164;17.100;2023-07-31T19:04:43;5.60;;;2.50;;
39782;SDS011;25462;51.164;17.100;2023-07-31T19:09:47;4.60;;;2.50;;
39782;SDS011;25462;51.164;17.100;2023-07-31T19:15:11;5.10;;;2.20;;
39782;SDS011;25462;51.164;17.100;2023-07-31T19:20:16;9.90;;;2.40;;
39782;SDS011;25462;51.164;17.100;2023-07-31T19:25:22;4.00;;;2.20;;
39782;SDS011;25462;51.164;17.100;2023-07-31T19:30:28;4.50;;;2.30;;
39782;SDS011;25462;51.164;17.100;2023-07-31T19:35:33;4.00;;;1.90;;
39782;SDS011;25462;51.164;17.100;2023-07-31T19:40:38;5.50;;;2.40;;
39782;SDS011;25462;51.164;17.100;2023-07-31T19:45:43;4.50;;;2.20;;
39782;SDS011;25462;51.164;17.100;2023-07-31T19:50:48;5.00;;;2.30;;
39782;SDS011;25462;51.164;17.100;2023-07-31T19:55:54;8.00;;;2.00;;
39782;SDS011;25462;51.164;17.100;2023-07-31T20:01:00;5.40;;;2.60;;
39782;SDS011;25462;51.164;17.100;2023-07-31T20:06:06;4.60;;;2.80;;
39782;SDS011;25462;51.164;17.100;2023-07-31T20:11:10;4.20;;;2.40;;
39782;SDS011;25462;51.164;17.100;2023-07-31T20:16:16;5.40;;;2.80;;
39782;SDS011;25462;51.164;17.100;2023-07-31T20:21:21;7.70;;;2.80;;
39782;SDS011;25462;51.164;17.100;2023-07-31T20:26:26;5.80;;;2.50;;
39782;SDS011;25462;51.164;17.100;2023-07-31T20:31:30;7.70;;;2.70;;
39782;SDS011;25462;51.164;17.100;2023-07-31T20:36:35;6.90;;;3.10;;
39782;SDS011;25462;51.164;17.100;2023-07-31T20:41:41;4.20;;;2.50;;
39782;SDS011;25462;51.164;17.100;2023-07-31T20:46:46;4.10;;;2.50;;
39782;SDS011;25462;51.164;17.100;2023-07-31T20:51:50;5.30;;;3.00;;
39782;SDS011;25462;51.164;17.100;2023-07-31T20:56:54;6.90;;;2.70;;
39782;SDS011;25462;51.164;17.100;2023-07-31T21:02:03;5.00;;;2.80;;
39782;SDS011;25462;51.164;17.100;2023-07-31T21:07:07;5.60;;;2.70;;
39782;SDS011;25462;51.164;17.100;2023-07-31T21:12:15;6.10;;;2.70;;
39782;SDS011;25462;51.164;17.100;2023-07-31T21:17:19;9.10;;;2.60;;
39782;SDS011;25462;51.164;17.100;2023-07-31T21:22:23;5.30;;;2.60;;
39782;SDS011;25462;51.164;17.100;2023-07-31T21:27:29;6.80;;;3.00;;
39782;SDS011;25462;51.164;17.100;2023-07-31T21:32:33;7.20;;;3.00;;
39782;SDS011;25462;51.164;17.100;2023-07-31T21:37:37;8.70;;;2.80;;
39782;SDS011;25462;51.164;17.100;2023-07-31T21:42:41;6.20;;;3.20;;
39782;SDS011;25462;51.164;17.100;2023-07-31T21:47:46;8.90;;;3.00;;
39782;SDS011;25462;51.164;17.100;2023-07-31T21:52:49;6.70;;;2.60;;
39782;SDS011;25462;51.164;17.100;2023-07-31T21:57:54;7.80;;;3.00;;
39782;SDS011;25462;51.164;17.100;2023-07-31T22:02:58;8.90;;;2.70;;
39782;SDS011;25462;51.164;17.100;2023-07-31T22:08:03;5.20;;;2.60;;
39782;SDS011;25462;51.164;17.100;2023-07-31T22:13:07;10.60;;;2.70;;
39782;SDS011;25462;51.164;17.100;2023-07-31T22:18:11;7.40;;;3.00;;
39782;SDS011;25462;51.164;17.100;2023-07-31T22:23:15;7.60;;;2.70;;
39782;SDS011;25462;51.164;17.100;2023-07-31T22:28:19;7.50;;;2.50;;
39782;SDS011;25462;51.164;17.100;2023-07-31T22:33:23;8.70;;;2.60;;
39782;SDS011;25462;51.164;17.100;2023-07-31T22:38:27;4.40;;;2.40;;
39782;SDS011;25462;51.164;17.100;2023-07-31T22:43:32;6.10;;;2.80;;
39782;SDS011;25462;51.164;17.100;2023-07-31T22:48:37;4.70;;;2.10;;
39782;SDS011;25462;51.164;17.100;2023-07-31T22:53:41;5.20;;;2.40;;
39782;SDS011;25462;51.164;17.100;2023-07-31T22:58:45;5.00;;;2.50;;
39782;SDS011;25462;51.164;17.100;2023-07-31T23:03:49;5.10;;;2.60;;
39782;SDS011;25462;51.164;17.100;2023-07-31T23:08:53;6.70;;;2.70;;
39782;SDS011;25462;51.164;17.100;2023-07-31T23:13:57;8.10;;;2.40;;
39782;SDS011;25462;51.164;17.100;2023-07-31T23:19:01;5.10;;;2.50;;
39782;SDS011;25462;51.164;17.100;2023-07-31T23:24:05;9.00;;;2.70;;
39782;SDS011;25462;51.164;17.100;2023-07-31T23:29:08;5.70;;;2.20;;
39782;SDS011;25462;51.164;17.100;2023-07-31T23:34:12;4.80;;;2.30;;
39782;SDS011;25462;51.164;17.100;2023-07-31T23:39:16;7.20;;;2.40;;
39782;SDS011;25462;51.164;17.100;2023-07-31T23:44:20;7.50;;;2.80;;
39782;SDS011;25462;51.164;17.100;2023-07-31T23:49:24;5.70;;;2.20;;
39782;SDS011;25462;51.164;17.100;2023-07-31T23:54:28;4.30;;;2.30;;
39782;SDS011;25462;51.164;17.100;2023-07-31T23:59:32;5.80;;;2.50;;
